sim
Sign-in with your pilot id or email,
or register
Callsign
Passwort

Schedule Details

Flight Number: EWG242
Departure: Cologne Bonn Airport (EDDK) at 09:15
Arrival: Fuerteventura Airport (GCFV) at 13:50
Route: Eurowings Passenger Schedule. Enter filed route here before submitting Pirep.

Weather Information
Getting current METAR information for EDDK 182020Z 08008KT CAVOK 18/03 Q1025 NOSIG
Getting current METAR information for GCFV 182000Z 36016KT 9999 FEW045 18/11 Q1019

Schedule Frequency

Route Map